Time;durP1;ratioP1;P1;durP2;ratioP2;P2;SDS_P1;SDS_P2;PMS_P1;PMS_P2;Temp;Humidity;BMP_temperature;BMP_pressure;BME280_temperature;BME280_humidity;BME280_pressure;Samples;Min_cycle;Max_cycle;Signal;HPM_P1;HPM_P2
2022/10/03 00:01:08;;;;;;;5.53;3.25;;;;;;;;;;8273676;28;20054;-63
2022/10/03 00:05:08;;;;;;;5.88;3.47;;;;;;;;;;8261727;28;20038;-61
2022/10/03 00:09:17;;;;;;;6.65;3.35;;;;;;;;;;8273744;28;20598;-61
2022/10/03 00:13:29;;;;;;;13.75;3.28;;;;;;;;;;8274058;28;20364;-61
2022/10/03 00:17:40;;;;;;;7.13;2.97;;;;;;;;;;8272504;28;20044;-62
2022/10/03 00:21:40;;;;;;;6.07;3.30;;;;;;;;;;8273721;28;20566;-61
2022/10/03 00:25:46;;;;;;;6.72;3.00;;;;;;;;;;8273231;28;20148;-62
2022/10/03 00:29:52;;;;;;;7.90;3.67;;;;;;;;;;8272853;28;20029;-62
2022/10/03 00:34:11;;;;;;;8.77;3.70;;;;;;;;;;8271156;28;20034;-61
2022/10/03 00:38:26;;;;;;;11.70;3.25;;;;;;;;;;8273346;28;20021;-62
2022/10/03 00:42:53;;;;;;;5.68;3.30;;;;;;;;;;8273537;28;20104;-62
2022/10/03 00:47:12;;;;;;;4.35;3.28;;;;;;;;;;8270917;28;20048;-62
2022/10/03 00:51:12;;;;;;;6.70;3.78;;;;;;;;;;8271484;28;20790;-62
2022/10/03 00:55:15;;;;;;;5.05;3.67;;;;;;;;;;8270815;28;20017;-62
2022/10/03 00:59:22;;;;;;;4.75;3.22;;;;;;;;;;8273861;28;20091;-61
2022/10/03 01:03:22;;;;;;;9.05;3.38;;;;;;;;;;8269018;28;20671;-62
2022/10/03 01:07:29;;;;;;;5.53;3.72;;;;;;;;;;8272288;28;20033;-62
2022/10/03 01:11:30;;;;;;;5.82;3.28;;;;;;;;;;8270019;28;20032;-62
2022/10/03 01:15:30;;;;;;;6.95;3.40;;;;;;;;;;8270784;28;20904;-62
2022/10/03 01:19:44;;;;;;;9.45;3.05;;;;;;;;;;8270586;28;20029;-62
2022/10/03 01:23:47;;;;;;;9.02;3.30;;;;;;;;;;8270209;28;20694;-61
2022/10/03 01:32:27;;;;;;;9.65;3.88;;;;;;;;;;8270309;28;20136;-62
2022/10/03 01:36:28;;;;;;;12.35;4.30;;;;;;;;;;8273173;28;20030;-61
2022/10/03 01:40:33;;;;;;;7.25;4.18;;;;;;;;;;8285697;28;20040;-61
2022/10/03 01:44:43;;;;;;;7.93;4.25;;;;;;;;;;8270920;28;20793;-62
2022/10/03 01:48:58;;;;;;;8.68;4.38;;;;;;;;;;8270613;28;20420;-62
2022/10/03 01:53:01;;;;;;;11.15;4.35;;;;;;;;;;8269123;28;20176;-62
2022/10/03 01:57:10;;;;;;;11.95;4.60;;;;;;;;;;8270486;28;20084;-61
2022/10/03 02:01:14;;;;;;;9.43;4.70;;;;;;;;;;8269717;28;20038;-61
2022/10/03 02:05:34;;;;;;;11.00;4.50;;;;;;;;;;8270389;28;20030;-62
2022/10/03 02:09:49;;;;;;;10.25;5.00;;;;;;;;;;8275749;28;20362;-62
2022/10/03 02:13:54;;;;;;;8.38;4.35;;;;;;;;;;8277072;28;20557;-61
2022/10/03 02:18:11;;;;;;;10.68;4.07;;;;;;;;;;8276125;28;20048;-61
2022/10/03 02:22:27;;;;;;;9.20;4.22;;;;;;;;;;8275472;28;20291;-62
2022/10/03 02:26:44;;;;;;;5.95;3.80;;;;;;;;;;8276108;28;20053;-62
2022/10/03 02:30:46;;;;;;;9.13;4.03;;;;;;;;;;8275413;28;20054;-61
2022/10/03 02:34:55;;;;;;;8.88;3.90;;;;;;;;;;8278022;28;20022;-62
2022/10/03 02:39:14;;;;;;;12.68;4.80;;;;;;;;;;8275170;28;20018;-62
2022/10/03 02:43:23;;;;;;;9.52;4.72;;;;;;;;;;8276810;28;20022;-62
2022/10/03 02:47:24;;;;;;;8.68;4.32;;;;;;;;;;8274601;28;20045;-62
2022/10/03 02:51:43;;;;;;;8.65;4.30;;;;;;;;;;8274852;28;20110;-62
2022/10/03 02:55:58;;;;;;;6.65;4.13;;;;;;;;;;8275608;28;20025;-63
2022/10/03 03:00:28;;;;;;;9.00;4.20;;;;;;;;;;8275652;28;20026;-61
2022/10/03 03:04:28;;;;;;;10.70;4.57;;;;;;;;;;8267805;28;20705;-62
2022/10/03 03:08:32;;;;;;;11.38;4.53;;;;;;;;;;8274172;28;20029;-62
2022/10/03 03:12:43;;;;;;;8.05;4.53;;;;;;;;;;8275883;28;20166;-62
2022/10/03 03:16:43;;;;;;;9.93;4.28;;;;;;;;;;8274853;28;20029;-62
2022/10/03 03:21:06;;;;;;;14.30;4.82;;;;;;;;;;8273442;28;20401;-62
2022/10/03 03:25:06;;;;;;;8.52;4.90;;;;;;;;;;8268410;28;21002;-62
2022/10/03 03:29:14;;;;;;;14.02;5.15;;;;;;;;;;8274849;28;20037;-61
2022/10/03 03:33:22;;;;;;;7.85;4.40;;;;;;;;;;8272576;28;20057;-61
2022/10/03 03:37:33;;;;;;;15.20;4.75;;;;;;;;;;8274038;28;20080;-61
2022/10/03 03:41:39;;;;;;;7.93;4.10;;;;;;;;;;8273959;28;20072;-61
2022/10/03 03:45:42;;;;;;;8.90;4.45;;;;;;;;;;8274800;28;20138;-62
2022/10/03 03:49:49;;;;;;;7.30;4.03;;;;;;;;;;8272613;28;20862;-62
2022/10/03 03:53:49;;;;;;;7.45;5.03;;;;;;;;;;8270887;28;20056;-61
2022/10/03 03:57:56;;;;;;;11.23;5.00;;;;;;;;;;8272023;28;20022;-62
2022/10/03 04:02:15;;;;;;;9.90;4.57;;;;;;;;;;8273018;28;20034;-62
2022/10/03 04:06:25;;;;;;;16.60;4.95;;;;;;;;;;8271294;28;20041;-62
2022/10/03 04:10:37;;;;;;;19.67;5.57;;;;;;;;;;8273932;28;20029;-62
2022/10/03 04:14:56;;;;;;;9.32;5.55;;;;;;;;;;8271532;28;20117;-61
2022/10/03 04:19:06;;;;;;;11.70;5.47;;;;;;;;;;8272524;28;20061;-62
2022/10/03 04:23:24;;;;;;;11.30;5.57;;;;;;;;;;8271414;28;20383;-62
2022/10/03 04:27:43;;;;;;;10.18;5.25;;;;;;;;;;8271208;28;20359;-61
2022/10/03 04:32:02;;;;;;;10.20;4.75;;;;;;;;;;8271402;28;20616;-61
2022/10/03 04:36:05;;;;;;;6.97;4.63;;;;;;;;;;8272094;28;20037;-62
2022/10/03 04:40:06;;;;;;;6.68;4.05;;;;;;;;;;8270458;28;20085;-62
2022/10/03 04:44:07;;;;;;;9.15;3.80;;;;;;;;;;8271057;28;20685;-62
2022/10/03 04:48:11;;;;;;;5.35;3.72;;;;;;;;;;8270515;28;20088;-61
2022/10/03 04:52:17;;;;;;;5.22;3.78;;;;;;;;;;8272219;28;20168;-62
2022/10/03 04:56:28;;;;;;;6.78;4.13;;;;;;;;;;8273022;28;20030;-62
2022/10/03 05:00:28;;;;;;;9.07;3.95;;;;;;;;;;8271373;28;20041;-62
2022/10/03 05:04:33;;;;;;;7.68;4.07;;;;;;;;;;8269935;28;20029;-61
2022/10/03 05:08:37;;;;;;;5.32;3.60;;;;;;;;;;8270011;28;20327;-62
2022/10/03 05:12:44;;;;;;;8.68;3.97;;;;;;;;;;8270519;28;20793;-61
2022/10/03 05:17:10;;;;;;;7.80;3.47;;;;;;;;;;8269073;28;20034;-62
2022/10/03 05:21:31;;;;;;;6.72;3.83;;;;;;;;;;8255943;28;20050;-61
2022/10/03 05:25:40;;;;;;;6.18;4.03;;;;;;;;;;8270294;28;20072;-62
2022/10/03 05:29:40;;;;;;;5.90;4.00;;;;;;;;;;8270499;28;20037;-61
2022/10/03 05:33:41;;;;;;;9.63;3.92;;;;;;;;;;8270153;28;20029;-62
2022/10/03 05:37:56;;;;;;;6.63;4.20;;;;;;;;;;8272619;28;20025;-62
2022/10/03 05:42:15;;;;;;;14.63;4.70;;;;;;;;;;8271424;28;20387;-62
2022/10/03 05:46:15;;;;;;;8.93;4.15;;;;;;;;;;8277516;28;20948;-62
2022/10/03 05:50:15;;;;;;;10.57;4.03;;;;;;;;;;8279514;28;20033;-62
2022/10/03 05:54:15;;;;;;;11.93;3.97;;;;;;;;;;8277913;28;20029;-62
2022/10/03 05:58:24;;;;;;;11.55;4.13;;;;;;;;;;8277387;28;20783;-62
2022/10/03 06:02:28;;;;;;;9.27;4.60;;;;;;;;;;8277045;28;20034;-63
2022/10/03 06:06:47;;;;;;;12.45;4.78;;;;;;;;;;8279152;28;20013;-63
2022/10/03 06:10:56;;;;;;;7.18;4.05;;;;;;;;;;8276298;28;20030;-62
2022/10/03 06:14:56;;;;;;;5.65;4.30;;;;;;;;;;8277294;28;20072;-62
2022/10/03 06:19:05;;;;;;;8.63;4.30;;;;;;;;;;8278326;28;20030;-62
2022/10/03 06:23:24;;;;;;;11.90;5.85;;;;;;;;;;8279160;28;20033;-62
2022/10/03 06:27:25;;;;;;;6.68;4.35;;;;;;;;;;8276305;28;20040;-61
2022/10/03 06:31:44;;;;;;;7.20;4.00;;;;;;;;;;8276047;28;20042;-61
2022/10/03 06:36:02;;;;;;;10.82;4.40;;;;;;;;;;8277117;28;20276;-62
2022/10/03 06:40:21;;;;;;;8.40;3.67;;;;;;;;;;8270527;28;20072;-62
2022/10/03 06:44:22;;;;;;;6.00;3.88;;;;;;;;;;8277303;28;20014;-61
2022/10/03 06:48:28;;;;;;;6.65;3.88;;;;;;;;;;8273499;28;20121;-62
2022/10/03 06:52:37;;;;;;;7.28;3.30;;;;;;;;;;8275282;28;20138;-62
2022/10/03 06:56:54;;;;;;;7.38;3.47;;;;;;;;;;8273740;28;20064;-62
2022/10/03 07:00:57;;;;;;;7.40;3.13;;;;;;;;;;8271524;28;20041;-62
2022/10/03 07:05:00;;;;;;;5.28;3.20;;;;;;;;;;8271914;28;20025;-62
2022/10/03 07:09:12;;;;;;;6.25;3.28;;;;;;;;;;8272149;28;20018;-62
2022/10/03 07:13:31;;;;;;;6.32;3.85;;;;;;;;;;8271178;28;20136;-61
2022/10/03 07:18:05;;;;;;;9.07;4.88;;;;;;;;;;8272393;28;20037;-61
2022/10/03 07:22:05;;;;;;;12.70;4.60;;;;;;;;;;8259655;28;20128;-62
2022/10/03 07:26:25;;;;;;;10.40;3.87;;;;;;;;;;8271772;28;20070;-62
2022/10/03 07:30:30;;;;;;;9.10;2.83;;;;;;;;;;8272399;28;20042;-62
2022/10/03 07:34:48;;;;;;;12.25;2.65;;;;;;;;;;8272284;28;20021;-62
2022/10/03 07:39:05;;;;;;;6.40;2.35;;;;;;;;;;8272519;28;20127;-62
2022/10/03 07:43:29;;;;;;;6.95;2.58;;;;;;;;;;8270125;28;20513;-61
2022/10/03 07:47:48;;;;;;;7.57;2.40;;;;;;;;;;8271611;28;20486;-61
2022/10/03 07:52:11;;;;;;;6.47;2.15;;;;;;;;;;8272568;28;20021;-61
2022/10/03 07:56:15;;;;;;;7.73;2.80;;;;;;;;;;8267883;28;20133;-61
2022/10/03 08:05:05;;;;;;;7.63;2.33;;;;;;;;;;8289180;28;20848;-61
2022/10/03 08:09:23;;;;;;;5.75;2.10;;;;;;;;;;8271977;28;20741;-61
2022/10/03 08:13:34;;;;;;;6.57;2.35;;;;;;;;;;8269939;28;20025;-61
2022/10/03 08:18:07;;;;;;;4.40;1.50;;;;;;;;;;8289588;28;20037;-61
2022/10/03 08:22:15;;;;;;;6.15;1.63;;;;;;;;;;8291668;28;20095;-61
2022/10/03 08:26:31;;;;;;;3.35;1.45;;;;;;;;;;8315085;28;20029;-62
2022/10/03 08:30:38;;;;;;;7.18;1.70;;;;;;;;;;8297600;28;20566;-62
2022/10/03 08:34:47;;;;;;;7.15;2.03;;;;;;;;;;8270753;28;20698;-61
2022/10/03 08:38:50;;;;;;;5.05;1.77;;;;;;;;;;8269549;28;20029;-60
2022/10/03 08:43:09;;;;;;;7.35;1.83;;;;;;;;;;8269447;28;20353;-61
2022/10/03 08:47:22;;;;;;;5.78;1.95;;;;;;;;;;8267267;28;20183;-61
2022/10/03 08:51:34;;;;;;;5.77;1.83;;;;;;;;;;8267422;28;20026;-60
2022/10/03 08:55:48;;;;;;;4.93;1.90;;;;;;;;;;8267294;28;20523;-60
2022/10/03 09:00:07;;;;;;;4.75;1.90;;;;;;;;;;8269135;28;20301;-62
2022/10/03 09:04:26;;;;;;;7.50;2.15;;;;;;;;;;8300536;28;20413;-62
2022/10/03 09:08:34;;;;;;;3.10;1.52;;;;;;;;;;8302763;28;20025;-61
2022/10/03 09:12:53;;;;;;;6.55;1.83;;;;;;;;;;8299540;28;20036;-61
2022/10/03 09:17:05;;;;;;;6.60;2.13;;;;;;;;;;8301770;28;20395;-61
2022/10/03 09:21:08;;;;;;;6.68;2.20;;;;;;;;;;8301059;28;20025;-61
2022/10/03 09:25:11;;;;;;;5.85;2.50;;;;;;;;;;8302869;28;20032;-61
2022/10/03 09:29:22;;;;;;;7.50;2.10;;;;;;;;;;8302194;28;20030;-61
2022/10/03 09:33:22;;;;;;;5.20;2.30;;;;;;;;;;8298042;28;20152;-61
2022/10/03 09:37:41;;;;;;;5.07;2.10;;;;;;;;;;8300924;28;20087;-62
2022/10/03 09:42:00;;;;;;;5.70;1.88;;;;;;;;;;8299453;28;20357;-62
2022/10/03 09:46:17;;;;;;;7.50;2.10;;;;;;;;;;8297993;28;20581;-62
2022/10/03 09:50:35;;;;;;;6.60;1.88;;;;;;;;;;8298590;28;20033;-62
2022/10/03 09:54:55;;;;;;;4.22;1.70;;;;;;;;;;8299808;28;20025;-62
2022/10/03 09:59:14;;;;;;;3.92;1.52;;;;;;;;;;8299855;28;20030;-61
2022/10/03 10:03:32;;;;;;;5.55;2.05;;;;;;;;;;8300511;28;20037;-61
2022/10/03 10:07:42;;;;;;;4.25;1.80;;;;;;;;;;8298784;28;20036;-60
2022/10/03 10:12:01;;;;;;;3.95;1.60;;;;;;;;;;8298943;28;20355;-61
2022/10/03 10:16:10;;;;;;;8.32;2.20;;;;;;;;;;8299207;28;20070;-61
2022/10/03 10:20:16;;;;;;;5.30;1.60;;;;;;;;;;8299896;28;20087;-61
2022/10/03 10:24:35;;;;;;;5.35;1.60;;;;;;;;;;8299452;28;20087;-60
2022/10/03 10:28:42;;;;;;;4.55;1.70;;;;;;;;;;8298996;28;20029;-61
2022/10/03 10:33:01;;;;;;;5.75;1.77;;;;;;;;;;8303598;28;20779;-62
2022/10/03 10:37:20;;;;;;;5.82;2.05;;;;;;;;;;8304083;28;20047;-61
2022/10/03 10:41:20;;;;;;;5.15;2.20;;;;;;;;;;8305625;28;20013;-61
2022/10/03 10:45:29;;;;;;;8.50;2.20;;;;;;;;;;8303255;28;20276;-62
2022/10/03 10:49:56;;;;;;;5.10;2.00;;;;;;;;;;8305380;28;20863;-62
2022/10/03 10:54:15;;;;;;;4.28;1.98;;;;;;;;;;8304668;28;20033;-62
2022/10/03 10:58:24;;;;;;;6.20;2.10;;;;;;;;;;8321059;28;20139;-61
2022/10/03 11:02:27;;;;;;;5.80;1.70;;;;;;;;;;8304210;28;20043;-61
2022/10/03 11:06:28;;;;;;;6.55;2.03;;;;;;;;;;8319914;28;20051;-63
2022/10/03 11:10:57;;;;;;;6.20;2.10;;;;;;;;;;8303043;28;20037;-62
2022/10/03 11:15:28;;;;;;;4.30;1.90;;;;;;;;;;8247724;28;20485;-61
2022/10/03 11:19:47;;;;;;;7.65;2.17;;;;;;;;;;8271594;28;20038;-61
2022/10/03 11:23:53;;;;;;;5.65;1.90;;;;;;;;;;8270892;28;20021;-61
2022/10/03 11:28:15;;;;;;;6.93;1.73;;;;;;;;;;8272446;28;20037;-62
2022/10/03 11:32:18;;;;;;;5.88;2.20;;;;;;;;;;8273120;28;20137;-62
2022/10/03 11:36:29;;;;;;;5.93;2.15;;;;;;;;;;8268194;28;20065;-61
2022/10/03 11:40:44;;;;;;;6.03;2.53;;;;;;;;;;8268956;28;20034;-62
2022/10/03 11:44:47;;;;;;;6.75;2.10;;;;;;;;;;8268609;28;20046;-61
2022/10/03 11:48:53;;;;;;;4.93;1.80;;;;;;;;;;8302070;28;20094;-61
2022/10/03 11:53:13;;;;;;;4.72;2.00;;;;;;;;;;8302000;28;20013;-61
2022/10/03 11:57:25;;;;;;;6.65;2.03;;;;;;;;;;8302110;28;20022;-61
2022/10/03 12:01:41;;;;;;;3.78;1.95;;;;;;;;;;8302091;28;20040;-61
2022/10/03 12:10:30;;;;;;;6.43;2.22;;;;;;;;;;8302865;28;20168;-60
2022/10/03 12:14:43;;;;;;;3.13;1.80;;;;;;;;;;8304543;28;20028;-61
2022/10/03 12:18:43;;;;;;;8.88;2.22;;;;;;;;;;8304184;28;20046;-61
2022/10/03 12:22:49;;;;;;;5.50;2.10;;;;;;;;;;8305915;28;20502;-61
2022/10/03 12:26:51;;;;;;;6.38;2.20;;;;;;;;;;8303934;28;20057;-61
2022/10/03 12:31:00;;;;;;;3.50;1.90;;;;;;;;;;8303338;28;20040;-60
2022/10/03 12:35:13;;;;;;;5.03;2.00;;;;;;;;;;8303344;28;20876;-61
2022/10/03 12:39:24;;;;;;;4.13;1.90;;;;;;;;;;8302290;28;20033;-60
2022/10/03 12:43:33;;;;;;;5.07;1.90;;;;;;;;;;8302443;28;20035;-60
2022/10/03 12:47:53;;;;;;;4.45;1.90;;;;;;;;;;8304227;28;20120;-61
2022/10/03 12:51:56;;;;;;;4.00;1.90;;;;;;;;;;8303880;28;20036;-61
2022/10/03 12:55:56;;;;;;;4.70;2.00;;;;;;;;;;8302342;28;20653;-61
2022/10/03 13:00:02;;;;;;;3.92;1.88;;;;;;;;;;8302002;28;20025;-61
2022/10/03 13:04:13;;;;;;;2.97;1.65;;;;;;;;;;8303391;28;20609;-61
2022/10/03 13:08:13;;;;;;;3.88;1.63;;;;;;;;;;8302550;28;20021;-61
2022/10/03 13:12:33;;;;;;;5.35;1.60;;;;;;;;;;8302792;28;20582;-61
2022/10/03 13:16:59;;;;;;;3.42;1.60;;;;;;;;;;8300791;28;20041;-61
2022/10/03 13:21:17;;;;;;;4.55;2.00;;;;;;;;;;8303225;28;20934;-60
2022/10/03 13:25:21;;;;;;;3.80;1.77;;;;;;;;;;8302102;28;20025;-60
2022/10/03 13:29:28;;;;;;;4.47;2.20;;;;;;;;;;8303198;28;20033;-60
2022/10/03 13:33:31;;;;;;;4.78;2.20;;;;;;;;;;8302178;28;20499;-62
2022/10/03 13:37:43;;;;;;;4.77;2.00;;;;;;;;;;8302372;28;20056;-62
2022/10/03 13:42:09;;;;;;;4.85;2.05;;;;;;;;;;8301071;28;20029;-61
2022/10/03 13:46:18;;;;;;;5.47;2.20;;;;;;;;;;8295696;28;20957;-61
2022/10/03 13:50:27;;;;;;;4.57;1.80;;;;;;;;;;8297525;28;20061;-61
2022/10/03 13:54:48;;;;;;;7.57;1.95;;;;;;;;;;8299342;28;20021;-61
2022/10/03 13:58:54;;;;;;;3.80;1.80;;;;;;;;;;8303626;28;20025;-62
2022/10/03 14:02:57;;;;;;;4.68;2.13;;;;;;;;;;8302922;28;20941;-61
2022/10/03 14:07:17;;;;;;;6.15;2.17;;;;;;;;;;8306096;28;20016;-61
2022/10/03 14:11:21;;;;;;;5.43;2.05;;;;;;;;;;8307927;28;20044;-61
2022/10/03 14:15:21;;;;;;;4.20;1.92;;;;;;;;;;8308714;28;20021;-62
2022/10/03 14:19:29;;;;;;;6.38;2.30;;;;;;;;;;8308225;28;20009;-62
2022/10/03 14:23:43;;;;;;;3.38;1.83;;;;;;;;;;8308005;28;20127;-62
2022/10/03 14:27:47;;;;;;;3.97;1.80;;;;;;;;;;8309477;28;20033;-62
2022/10/03 14:31:51;;;;;;;2.55;1.80;;;;;;;;;;8305826;28;20040;-61
2022/10/03 14:35:51;;;;;;;;;;;;;;;;;;8308014;28;20025;-61
2022/10/03 14:40:10;;;;;;;6.03;2.05;;;;;;;;;;8306600;28;19971;-61
2022/10/03 14:44:14;;;;;;;3.90;1.95;;;;;;;;;;8306003;28;20597;-62
2022/10/03 14:48:21;;;;;;;6.15;2.88;;;;;;;;;;8309254;28;20041;-62
2022/10/03 14:52:36;;;;;;;5.90;2.10;;;;;;;;;;8310376;28;20075;-61
2022/10/03 14:56:42;;;;;;;3.45;2.00;;;;;;;;;;8305442;28;20021;-62
2022/10/03 15:00:46;;;;;;;4.00;1.88;;;;;;;;;;8305137;28;20052;-61
2022/10/03 15:04:47;;;;;;;2.58;1.67;;;;;;;;;;8305725;28;20060;-61
2022/10/03 15:08:49;;;;;;;3.58;1.95;;;;;;;;;;8305647;28;20029;-61
2022/10/03 15:12:52;;;;;;;5.82;1.95;;;;;;;;;;8304726;28;20049;-62
2022/10/03 15:16:54;;;;;;;4.13;1.90;;;;;;;;;;8304331;28;20312;-61
2022/10/03 15:20:56;;;;;;;2.95;1.80;;;;;;;;;;8305512;28;20969;-62
2022/10/03 15:25:05;;;;;;;3.20;1.90;;;;;;;;;;8302887;28;20163;-62
2022/10/03 15:29:06;;;;;;;4.80;2.20;;;;;;;;;;8305209;28;20449;-62
2022/10/03 15:33:26;;;;;;;3.20;2.10;;;;;;;;;;8305137;28;20136;-61
2022/10/03 15:37:34;;;;;;;4.25;2.50;;;;;;;;;;8305009;28;20146;-62
2022/10/03 15:41:38;;;;;;;4.13;2.20;;;;;;;;;;8304444;28;20437;-62
2022/10/03 15:45:39;;;;;;;5.72;2.30;;;;;;;;;;8305238;28;20040;-62
2022/10/03 15:49:53;;;;;;;3.45;1.95;;;;;;;;;;8304938;28;20025;-62
2022/10/03 15:53:57;;;;;;;4.70;2.28;;;;;;;;;;8304112;28;20032;-61
2022/10/03 15:57:59;;;;;;;6.47;2.75;;;;;;;;;;8304970;28;20029;-63
2022/10/03 16:02:06;;;;;;;4.13;1.98;;;;;;;;;;8303135;28;20040;-62
2022/10/03 16:06:09;;;;;;;5.47;2.45;;;;;;;;;;8305070;28;20027;-61
2022/10/03 16:10:10;;;;;;;;;;;;;;;;;;8303633;28;20147;-62
2022/10/03 16:14:13;;;;;;;3.90;2.38;;;;;;;;;;8304992;28;19950;-62
2022/10/03 16:18:28;;;;;;;4.80;2.40;;;;;;;;;;8304114;28;20123;-62
2022/10/03 16:22:45;;;;;;;3.88;2.50;;;;;;;;;;8304623;28;20017;-61
2022/10/03 16:26:51;;;;;;;5.13;2.88;;;;;;;;;;8303642;28;20029;-61
2022/10/03 16:30:57;;;;;;;7.18;3.80;;;;;;;;;;8302116;28;20044;-61
2022/10/03 16:34:59;;;;;;;8.60;4.15;;;;;;;;;;8304509;28;20631;-62
2022/10/03 16:39:00;;;;;;;6.03;3.50;;;;;;;;;;8304923;28;20028;-62
2022/10/03 16:43:04;;;;;;;9.13;5.07;;;;;;;;;;8304801;28;20036;-62
2022/10/03 16:47:05;;;;;;;;;;;;;;;;;;8302525;28;20034;-61
2022/10/03 16:51:12;;;;;;;7.97;5.00;;;;;;;;;;8303220;28;20613;-62
2022/10/03 16:55:33;;;;;;;6.00;3.63;;;;;;;;;;8304730;28;20024;-62
2022/10/03 16:59:35;;;;;;;6.80;3.10;;;;;;;;;;8302668;28;20033;-61
2022/10/03 17:03:39;;;;;;;6.38;2.97;;;;;;;;;;8300279;28;20104;-62
2022/10/03 17:07:44;;;;;;;8.50;4.97;;;;;;;;;;8301784;28;20017;-61
2022/10/03 17:11:49;;;;;;;10.77;4.30;;;;;;;;;;8301896;28;20087;-62
2022/10/03 17:15:51;;;;;;;6.53;2.90;;;;;;;;;;8300871;28;20059;-60
2022/10/03 17:19:55;;;;;;;5.35;2.97;;;;;;;;;;8300296;28;20025;-60
2022/10/03 17:23:58;;;;;;;3.92;2.63;;;;;;;;;;8303778;28;20025;-61
2022/10/03 17:28:01;;;;;;;10.83;3.07;;;;;;;;;;8302030;28;20480;-62
2022/10/03 17:32:23;;;;;;;9.15;3.03;;;;;;;;;;8302388;28;21337;-61
2022/10/03 17:36:25;;;;;;;6.72;3.30;;;;;;;;;;8301294;28;20136;-61
2022/10/03 17:40:36;;;;;;;4.28;2.58;;;;;;;;;;8307286;28;20025;-61
2022/10/03 17:44:56;;;;;;;5.47;3.30;;;;;;;;;;8311539;28;20053;-61
2022/10/03 17:49:05;;;;;;;6.88;2.92;;;;;;;;;;8308364;28;21586;-62
2022/10/03 17:53:14;;;;;;;4.85;2.75;;;;;;;;;;8307764;28;20570;-61
2022/10/03 17:57:14;;;;;;;7.35;3.80;;;;;;;;;;8307242;28;20486;-61
2022/10/03 18:01:16;;;;;;;4.55;3.38;;;;;;;;;;8307844;28;20060;-61
2022/10/03 18:05:18;;;;;;;4.45;3.17;;;;;;;;;;8308608;28;20032;-61
2022/10/03 18:09:21;;;;;;;7.07;2.90;;;;;;;;;;8299331;28;20024;-61
2022/10/03 18:13:27;;;;;;;8.83;3.20;;;;;;;;;;8308042;28;20725;-61
2022/10/03 18:17:36;;;;;;;10.10;3.35;;;;;;;;;;8307351;28;20033;-61
2022/10/03 18:21:39;;;;;;;9.30;3.30;;;;;;;;;;8304397;28;20021;-60
2022/10/03 18:26:00;;;;;;;5.10;3.30;;;;;;;;;;8306457;28;20059;-61
2022/10/03 18:30:04;;;;;;;4.68;3.35;;;;;;;;;;8306728;28;20028;-62
2022/10/03 18:34:08;;;;;;;6.93;3.38;;;;;;;;;;8304664;28;20045;-61
2022/10/03 18:38:08;;;;;;;;;;;;;;;;;;8306503;28;20021;-61
2022/10/03 18:42:10;;;;;;;6.00;3.40;;;;;;;;;;8302636;28;19912;-60
2022/10/03 18:46:33;;;;;;;5.72;3.20;;;;;;;;;;8304219;28;20873;-61
2022/10/03 18:50:49;;;;;;;7.97;3.15;;;;;;;;;;8304391;28;20478;-60
2022/10/03 18:55:21;;;;;;;6.78;2.88;;;;;;;;;;8305823;28;20021;-61
2022/10/03 18:59:26;;;;;;;6.53;3.05;;;;;;;;;;8269732;28;20048;-61
2022/10/03 19:03:37;;;;;;;6.00;3.55;;;;;;;;;;8305037;28;20552;-61
2022/10/03 19:07:44;;;;;;;8.00;3.47;;;;;;;;;;8305647;28;20026;-61
2022/10/03 19:11:53;;;;;;;9.18;3.47;;;;;;;;;;8304760;28;20040;-61
2022/10/03 19:16:10;;;;;;;4.45;3.10;;;;;;;;;;8302144;28;20034;-60
2022/10/03 19:20:21;;;;;;;5.40;3.35;;;;;;;;;;8304095;28;20144;-61
2022/10/03 19:24:26;;;;;;;4.38;2.80;;;;;;;;;;8302776;28;20511;-61
2022/10/03 19:28:29;;;;;;;6.03;3.28;;;;;;;;;;8304925;28;20339;-61
2022/10/03 19:32:42;;;;;;;8.50;3.13;;;;;;;;;;8303326;28;20052;-60
2022/10/03 19:36:44;;;;;;;4.83;3.40;;;;;;;;;;8306709;28;20055;-61
2022/10/03 19:40:52;;;;;;;5.43;3.00;;;;;;;;;;8303901;28;20298;-60
2022/10/03 19:44:57;;;;;;;6.18;2.90;;;;;;;;;;8304608;28;20036;-61
2022/10/03 19:48:57;;;;;;;5.55;2.78;;;;;;;;;;8303369;28;20040;-61
2022/10/03 19:52:58;;;;;;;5.63;2.92;;;;;;;;;;8304281;28;20065;-60
2022/10/03 19:57:01;;;;;;;3.00;2.50;;;;;;;;;;8303425;28;20037;-61
2022/10/03 20:01:07;;;;;;;5.25;2.70;;;;;;;;;;8302275;28;20033;-61
2022/10/03 20:05:08;;;;;;;5.43;2.67;;;;;;;;;;8302433;28;20811;-61
2022/10/03 20:09:25;;;;;;;6.93;2.70;;;;;;;;;;8304309;28;20024;-61
2022/10/03 20:13:25;;;;;;;5.70;2.80;;;;;;;;;;8301910;28;20947;-61
2022/10/03 20:17:26;;;;;;;3.35;2.78;;;;;;;;;;8301093;28;20756;-60
2022/10/03 20:21:28;;;;;;;8.13;2.90;;;;;;;;;;8299381;28;20779;-61
2022/10/03 20:25:40;;;;;;;5.60;3.13;;;;;;;;;;8328264;28;21020;-59
2022/10/03 20:29:55;;;;;;;5.45;2.50;;;;;;;;;;8328165;28;20515;-60
2022/10/03 20:33:57;;;;;;;4.10;2.53;;;;;;;;;;8296326;28;20037;-59
2022/10/03 20:37:57;;;;;;;5.47;2.70;;;;;;;;;;8292779;28;20029;-61
2022/10/03 20:42:08;;;;;;;6.32;2.63;;;;;;;;;;8295597;28;20136;-60
2022/10/03 20:46:14;;;;;;;4.85;2.67;;;;;;;;;;8293535;28;20038;-59
2022/10/03 20:50:23;;;;;;;2.83;2.20;;;;;;;;;;8294433;28;20084;-60
2022/10/03 20:54:24;;;;;;;6.30;3.38;;;;;;;;;;8291708;28;20103;-59
2022/10/03 20:58:36;;;;;;;5.25;3.22;;;;;;;;;;8297043;28;20018;-65
2022/10/03 21:02:41;;;;;;;4.95;3.22;;;;;;;;;;8294257;28;20037;-60
2022/10/03 21:06:56;;;;;;;5.10;3.30;;;;;;;;;;8293659;28;20081;-60
2022/10/03 21:11:12;;;;;;;4.97;3.13;;;;;;;;;;8293507;28;20021;-61
2022/10/03 21:15:18;;;;;;;5.15;3.00;;;;;;;;;;8296544;28;20022;-61
2022/10/03 21:19:23;;;;;;;5.25;3.22;;;;;;;;;;8293710;28;20021;-61
2022/10/03 21:23:24;;;;;;;4.00;2.80;;;;;;;;;;8293842;28;20125;-61
2022/10/03 21:27:25;;;;;;;4.05;2.80;;;;;;;;;;8294659;28;20064;-61
2022/10/03 21:31:35;;;;;;;4.55;3.03;;;;;;;;;;8292008;28;20087;-61
2022/10/03 21:35:38;;;;;;;6.22;2.70;;;;;;;;;;8281166;28;20037;-60
2022/10/03 21:39:50;;;;;;;5.30;2.38;;;;;;;;;;8268947;28;20109;-61
2022/10/03 21:43:59;;;;;;;5.38;2.60;;;;;;;;;;8274093;28;20075;-61
2022/10/03 21:48:03;;;;;;;4.38;2.60;;;;;;;;;;8270317;28;20061;-60
2022/10/03 21:52:20;;;;;;;3.97;2.42;;;;;;;;;;8271641;28;20095;-61
2022/10/03 21:56:37;;;;;;;2.63;2.30;;;;;;;;;;8267947;28;20774;-60
2022/10/03 22:00:54;;;;;;;3.92;2.78;;;;;;;;;;8270898;28;20231;-61
2022/10/03 22:05:07;;;;;;;4.07;2.35;;;;;;;;;;8268322;28;20033;-60
2022/10/03 22:09:11;;;;;;;7.18;3.22;;;;;;;;;;8272827;28;20021;-61
2022/10/03 22:13:15;;;;;;;2.58;2.33;;;;;;;;;;8270515;28;20025;-60
2022/10/03 22:17:18;;;;;;;4.15;2.40;;;;;;;;;;8268827;28;20038;-61
2022/10/03 22:21:22;;;;;;;3.20;2.23;;;;;;;;;;8271542;28;20029;-61
2022/10/03 22:25:23;;;;;;;;;;;;;;;;;;8269908;28;21161;-61
2022/10/03 22:29:29;;;;;;;6.60;2.20;;;;;;;;;;8270022;28;19931;-61
2022/10/03 22:33:32;;;;;;;4.57;2.30;;;;;;;;;;8270225;28;20136;-61
2022/10/03 22:37:32;;;;;;;4.27;2.60;;;;;;;;;;8271689;28;20029;-60
2022/10/03 22:41:33;;;;;;;4.10;2.88;;;;;;;;;;8269863;28;20025;-60
2022/10/03 22:45:37;;;;;;;4.63;2.70;;;;;;;;;;8267691;28;20041;-60
2022/10/03 22:49:40;;;;;;;3.70;2.63;;;;;;;;;;8269098;28;20029;-61
2022/10/03 22:53:44;;;;;;;4.80;2.60;;;;;;;;;;8269308;28;20065;-61
2022/10/03 22:57:45;;;;;;;5.28;2.60;;;;;;;;;;8271350;28;20030;-60
2022/10/03 23:01:46;;;;;;;7.90;3.08;;;;;;;;;;8270388;28;20133;-61
2022/10/03 23:05:55;;;;;;;5.45;2.83;;;;;;;;;;8269480;28;20029;-60
2022/10/03 23:10:18;;;;;;;4.10;2.90;;;;;;;;;;8270347;28;20064;-61
2022/10/03 23:14:30;;;;;;;6.57;2.85;;;;;;;;;;8268935;28;20029;-60
2022/10/03 23:18:34;;;;;;;4.72;2.65;;;;;;;;;;8271260;28;20443;-60
2022/10/03 23:22:35;;;;;;;4.72;2.88;;;;;;;;;;8267854;28;20476;-60
2022/10/03 23:26:50;;;;;;;6.60;3.35;;;;;;;;;;8267782;28;20057;-61
2022/10/03 23:30:52;;;;;;;5.55;3.38;;;;;;;;;;8268477;28;20425;-60
2022/10/03 23:35:11;;;;;;;6.43;3.65;;;;;;;;;;8267830;28;20573;-61
2022/10/03 23:39:29;;;;;;;4.75;2.95;;;;;;;;;;8270388;28;20039;-60
2022/10/03 23:43:29;;;;;;;4.68;3.17;;;;;;;;;;8269844;28;20022;-61
2022/10/03 23:47:32;;;;;;;5.40;2.90;;;;;;;;;;8266551;28;20087;-61
2022/10/03 23:51:34;;;;;;;5.10;3.37;;;;;;;;;;8265667;28;20768;-61
2022/10/03 23:55:36;;;;;;;5.45;3.00;;;;;;;;;;8267831;28;20175;-61
2022/10/03 23:59:37;;;;;;;3.95;3.17;;;;;;;;;;8268048;28;20833;-60
